Time;durP1;ratioP1;P1;durP2;ratioP2;P2;SDS_P1;SDS_P2;PMS_P1;PMS_P2;Temp;Humidity;BMP_temperature;BMP_pressure;BME280_temperature;BME280_humidity;BME280_pressure;Samples;Min_cycle;Max_cycle;Signal;HPM_P1;HPM_P2
2023/12/20 00:01:40;;;;;;;8.20;7.30;;;;;;;8.04;45.02;97339.73;106270;1276;22698;-78
2023/12/20 00:04:08;;;;;;;8.60;7.70;;;;;;;8.05;44.98;97335.46;106318;1278;23925;-77
2023/12/20 00:06:36;;;;;;;8.90;7.50;;;;;;;8.02;44.77;97332.94;106405;1261;26610;-75
2023/12/20 00:09:04;;;;;;;9.40;7.70;;;;;;;7.98;44.97;97331.34;106339;1278;22547;-77
2023/12/20 00:11:33;;;;;;;9.00;7.40;;;;;;;7.95;45.18;97325.02;106292;1284;22505;-75
2023/12/20 00:14:00;;;;;;;8.90;7.80;;;;;;;7.93;44.85;97327.84;106415;1271;25632;-76
2023/12/20 00:16:28;;;;;;;12.40;7.90;;;;;;;7.89;44.65;97320.50;106491;1268;24365;-77
2023/12/20 00:18:56;;;;;;;8.70;7.80;;;;;;;7.87;44.77;97321.04;106446;1278;24204;-76
2023/12/20 00:21:24;;;;;;;8.70;7.80;;;;;;;7.85;44.63;97318.54;106438;1284;24380;-77
2023/12/20 00:23:52;;;;;;;10.80;8.30;;;;;;;7.82;44.09;97312.16;106417;1277;26109;-78
2023/12/20 00:26:20;;;;;;;9.30;8.40;;;;;;;7.76;44.41;97308.02;106761;1281;22575;-75
2023/12/20 00:28:49;;;;;;;9.90;7.50;;;;;;;7.73;44.40;97313.30;106276;1269;24085;-77
2023/12/20 00:31:17;;;;;;;10.20;7.80;;;;;;;7.73;44.20;97306.13;106272;1283;24226;-77
2023/12/20 00:33:46;;;;;;;11.00;8.90;;;;;;;7.69;44.50;97305.06;106224;1278;22747;-75
2023/12/20 00:36:15;;;;;;;9.20;8.00;;;;;;;7.63;44.78;97300.67;106391;1280;25445;-77
2023/12/20 00:38:43;;;;;;;11.00;8.20;;;;;;;7.60;44.47;97302.38;106286;1269;22665;-76
2023/12/20 00:41:11;;;;;;;9.90;8.70;;;;;;;7.56;44.46;97308.19;106758;1268;23357;-77
2023/12/20 00:43:39;;;;;;;10.90;8.00;;;;;;;7.53;44.67;97310.92;106332;1270;24246;-76
2023/12/20 00:46:07;;;;;;;8.80;7.40;;;;;;;7.47;44.81;97317.11;106287;1271;25406;-76
2023/12/20 00:48:35;;;;;;;9.00;8.10;;;;;;;7.46;44.90;97307.44;106315;1269;25436;-76
2023/12/20 00:51:03;;;;;;;9.00;8.10;;;;;;;7.44;44.68;97310.80;106346;1271;22572;-76
2023/12/20 00:53:31;;;;;;;9.30;7.60;;;;;;;7.41;44.77;97317.85;106397;1265;24281;-78
2023/12/20 00:55:59;;;;;;;8.60;7.60;;;;;;;7.40;44.63;97317.67;106356;1271;24390;-76
2023/12/20 00:58:27;;;;;;;9.30;8.30;;;;;;;7.38;44.57;97315.07;106293;1283;23455;-77
2023/12/20 01:00:56;;;;;;;8.70;7.70;;;;;;;7.35;44.82;97302.36;106487;1261;24226;-79
2023/12/20 01:03:24;;;;;;;8.70;7.80;;;;;;;7.34;44.68;97293.73;107152;1271;22566;-76
2023/12/20 01:05:52;;;;;;;8.80;7.90;;;;;;;7.34;44.42;97297.81;106403;1271;23919;-78
2023/12/20 01:08:20;;;;;;;8.00;7.00;;;;;;;7.35;44.44;97292.01;106384;1277;25503;-79
2023/12/20 01:10:48;;;;;;;7.80;7.00;;;;;;;7.35;44.81;97286.27;106753;1277;25393;-79
2023/12/20 01:13:16;;;;;;;6.80;6.10;;;;;;;7.36;44.78;97286.09;106757;1277;22815;-76
2023/12/20 01:15:44;;;;;;;7.80;6.90;;;;;;;7.32;44.73;97292.49;106286;1277;23794;-76
2023/12/20 01:18:12;;;;;;;6.90;6.20;;;;;;;7.30;44.83;97281.48;106386;1283;24273;-76
2023/12/20 01:20:40;;;;;;;10.00;7.80;;;;;;;7.29;44.74;97270.40;106735;1283;25407;-75
2023/12/20 01:23:08;;;;;;;7.10;6.40;;;;;;;7.28;44.50;97274.48;106692;1280;22557;-75
2023/12/20 01:25:36;;;;;;;7.80;6.50;;;;;;;7.28;44.44;97274.16;106307;1283;22551;-75
2023/12/20 01:28:04;;;;;;;9.60;7.00;;;;;;;7.27;44.17;97259.81;106341;1261;24238;-77
2023/12/20 01:30:32;;;;;;;7.30;6.20;;;;;;;7.24;44.43;97245.61;106329;1280;25279;-76
2023/12/20 01:33:01;;;;;;;8.20;6.80;;;;;;;7.20;44.59;97233.02;106307;1277;22535;-77
2023/12/20 01:35:29;;;;;;;7.60;6.80;;;;;;;7.16;44.48;97233.41;106843;1271;22803;-76
2023/12/20 01:37:57;;;;;;;7.50;6.80;;;;;;;7.13;44.66;97225.14;106471;1283;25469;-76
2023/12/20 01:40:25;;;;;;;8.20;7.40;;;;;;;7.09;44.78;97220.13;106267;1271;24351;-77
2023/12/20 01:43:07;;;;;;;9.20;7.30;;;;;;;7.04;44.83;97221.59;106321;1263;25252;-78
2023/12/20 01:45:35;;;;;;;8.10;7.30;;;;;;;6.96;45.01;97214.27;106638;1271;22609;-79
2023/12/20 01:48:05;;;;;;;7.30;6.60;;;;;;;6.92;45.18;97222.90;106673;1262;25439;-79
2023/12/20 01:50:36;;;;;;;8.30;7.50;;;;;;;6.90;45.21;97215.48;106756;1276;25252;-76
2023/12/20 01:53:07;;;;;;;9.30;7.20;;;;;;;6.88;45.24;97207.05;106305;1271;23859;-77
2023/12/20 01:55:38;;;;;;;9.00;8.10;;;;;;;6.87;45.30;97211.62;106652;1271;24222;-77
2023/12/20 01:58:11;;;;;;;9.50;8.10;;;;;;;6.85;45.31;97202.12;106681;1271;23425;-77
2023/12/20 02:00:39;;;;;;;8.00;7.10;;;;;;;6.87;45.57;97194.39;106263;1269;22536;-76
2023/12/20 02:03:08;;;;;;;8.20;7.40;;;;;;;6.85;45.55;97197.36;106199;1271;24234;-77
2023/12/20 02:05:55;;;;;;;7.30;6.40;;;;;;;6.86;45.44;97206.29;106319;1275;22559;-77
2023/12/20 02:08:23;;;;;;;8.20;7.30;;;;;;;6.86;45.59;97205.81;106172;1267;22540;-77
2023/12/20 02:10:51;;;;;;;10.10;8.70;;;;;;;6.86;45.57;97204.25;106222;1270;22561;-77
2023/12/20 02:13:24;;;;;;;9.60;8.60;;;;;;;6.86;45.44;97205.64;106714;1269;25887;-78
2023/12/20 02:15:53;;;;;;;8.60;7.60;;;;;;;6.87;45.37;97197.58;106598;1280;25394;-78
2023/12/20 02:18:22;;;;;;;7.90;6.90;;;;;;;6.87;45.65;97192.98;106790;1260;24357;-77
2023/12/20 02:20:50;;;;;;;7.70;6.90;;;;;;;6.87;45.61;97194.02;106262;1273;25265;-76
2023/12/20 02:23:18;;;;;;;7.60;6.70;;;;;;;6.86;45.72;97191.77;106337;1268;25296;-77
2023/12/20 02:25:46;;;;;;;7.10;6.40;;;;;;;6.83;45.64;97182.33;106610;1268;22551;-77
2023/12/20 02:28:14;;;;;;;7.70;6.80;;;;;;;6.82;45.69;97186.10;106277;1268;22569;-79
2023/12/20 02:30:42;;;;;;;9.20;7.40;;;;;;;6.81;45.44;97195.91;106520;1280;24356;-78
2023/12/20 02:33:12;;;;;;;8.10;6.60;;;;;;;6.81;45.48;97195.70;106756;1271;22544;-78
2023/12/20 02:35:40;;;;;;;8.20;7.40;;;;;;;6.81;45.84;97193.72;106693;1271;24279;-78
2023/12/20 02:38:08;;;;;;;6.90;6.10;;;;;;;6.82;45.54;97190.87;106661;1268;22540;-78
2023/12/20 02:40:36;;;;;;;8.40;7.60;;;;;;;6.82;45.34;97190.81;106568;1283;22592;-78
2023/12/20 02:43:04;;;;;;;8.20;7.40;;;;;;;6.85;45.60;97187.87;106558;1271;24082;-77
2023/12/20 02:45:32;;;;;;;7.30;6.30;;;;;;;6.86;45.62;97179.73;106290;1275;24450;-77
2023/12/20 02:48:00;;;;;;;7.10;6.30;;;;;;;6.86;45.75;97181.22;106281;1273;26540;-77
2023/12/20 02:50:28;;;;;;;7.70;6.60;;;;;;;6.86;45.78;97189.26;106664;1275;22789;-77
2023/12/20 02:52:56;;;;;;;8.40;7.00;;;;;;;6.86;45.75;97186.48;106628;1281;22560;-78
2023/12/20 02:55:24;;;;;;;7.80;6.80;;;;;;;6.84;45.76;97189.13;106554;1284;22533;-77
2023/12/20 02:57:52;;;;;;;10.10;6.90;;;;;;;6.86;45.71;97199.43;106677;1262;22564;-78
2023/12/20 03:00:20;;;;;;;9.20;7.00;;;;;;;6.86;45.71;97202.77;106361;1271;22530;-77
2023/12/20 03:02:47;;;;;;;7.50;6.60;;;;;;;6.85;45.87;97197.04;106711;1277;22786;-76
2023/12/20 03:05:15;;;;;;;10.20;8.00;;;;;;;6.82;46.03;97188.83;106358;1277;24101;-76
2023/12/20 03:07:44;;;;;;;7.30;6.60;;;;;;;6.80;46.20;97187.91;106730;1271;22564;-77
2023/12/20 03:10:12;;;;;;;6.40;5.70;;;;;;;6.80;47.80;97167.55;106686;1259;23909;-77
2023/12/20 03:12:50;;;;;;;7.00;5.30;;;;;;;6.79;48.77;97180.41;106683;1274;23110;-77
2023/12/20 03:15:18;;;;;;;7.20;6.50;;;;;;;6.78;48.68;97172.06;106672;1271;22546;-77
2023/12/20 03:17:46;;;;;;;6.70;6.00;;;;;;;6.78;48.65;97165.86;106745;1283;22731;-78
2023/12/20 03:20:14;;;;;;;8.30;6.30;;;;;;;6.77;48.29;97172.68;106335;1274;25448;-77
2023/12/20 03:22:43;;;;;;;8.50;7.60;;;;;;;6.76;48.44;97176.27;106869;1277;22582;-78
2023/12/20 03:25:11;;;;;;;8.50;7.40;;;;;;;6.72;48.58;97171.80;106804;1276;22548;-77
2023/12/20 03:27:39;;;;;;;9.20;8.30;;;;;;;6.67;48.74;97171.39;106800;1284;24268;-77
2023/12/20 03:30:07;;;;;;;8.00;7.20;;;;;;;6.64;48.81;97170.42;106791;1284;23444;-78
2023/12/20 03:32:38;;;;;;;8.80;8.00;;;;;;;6.62;49.01;97172.53;106799;1284;22620;-78
2023/12/20 03:35:06;;;;;;;8.90;7.70;;;;;;;6.60;49.33;97163.42;106412;1283;25141;-77
2023/12/20 03:37:34;;;;;;;7.90;7.10;;;;;;;6.54;49.53;97168.09;106192;1284;25541;-77
2023/12/20 03:40:03;;;;;;;7.60;6.80;;;;;;;6.49;50.28;97174.23;106196;1269;22551;-79
2023/12/20 03:42:31;;;;;;;8.20;7.40;;;;;;;6.40;50.76;97170.81;106605;1263;22537;-78
2023/12/20 03:44:59;;;;;;;8.30;7.50;;;;;;;6.32;51.27;97172.32;106752;1283;25716;-78
2023/12/20 03:47:27;;;;;;;8.40;7.60;;;;;;;6.24;52.05;97176.59;106375;1283;22661;-77
2023/12/20 03:49:55;;;;;;;8.20;7.40;;;;;;;6.16;52.34;97177.89;106432;1281;22999;-77
2023/12/20 03:52:23;;;;;;;10.10;7.70;;;;;;;6.07;52.52;97170.30;107225;1278;22656;-77
2023/12/20 03:54:51;;;;;;;8.30;7.40;;;;;;;6.03;53.67;97174.84;106719;1284;22844;-79
2023/12/20 03:57:19;;;;;;;8.40;7.60;;;;;;;5.94;54.58;97175.14;106265;1284;24428;-77
2023/12/20 03:59:47;;;;;;;8.10;7.30;;;;;;;5.86;55.60;97176.35;106297;1284;22797;-78
2023/12/20 04:02:15;;;;;;;7.70;6.90;;;;;;;5.76;56.29;97182.77;106670;1265;26660;-78
2023/12/20 04:04:43;;;;;;;8.40;7.60;;;;;;;5.65;57.80;97191.29;106258;1278;22562;-78
2023/12/20 04:07:11;;;;;;;9.40;8.50;;;;;;;5.55;58.59;97187.70;106588;1278;24386;-78
2023/12/20 04:09:41;;;;;;;9.90;7.60;;;;;;;5.43;60.78;97189.38;106621;1284;22539;-77
2023/12/20 04:12:08;;;;;;;9.00;8.20;;;;;;;5.31;61.74;97194.14;106675;1268;22591;-78
2023/12/20 04:14:36;;;;;;;9.10;7.90;;;;;;;5.16;63.39;97197.42;106635;1278;24897;-78
2023/12/20 04:17:05;;;;;;;9.30;8.30;;;;;;;5.02;64.09;97194.81;106659;1274;25496;-78
2023/12/20 04:19:33;;;;;;;9.50;8.20;;;;;;;4.89;66.10;97193.32;106242;1284;22548;-78
2023/12/20 04:22:01;;;;;;;10.00;9.00;;;;;;;4.77;67.37;97200.87;106586;1274;23326;-78
2023/12/20 04:24:29;;;;;;;10.90;8.50;;;;;;;4.68;68.85;97205.91;106674;1283;25535;-78
2023/12/20 04:26:57;;;;;;;10.30;8.80;;;;;;;4.57;69.27;97205.18;106654;1276;25374;-78
2023/12/20 04:29:25;;;;;;;9.50;8.60;;;;;;;4.46;69.30;97201.79;106115;1284;25491;-78
2023/12/20 04:31:53;;;;;;;10.50;9.40;;;;;;;4.33;69.05;97203.34;106622;1273;22566;-78
2023/12/20 04:34:22;;;;;;;10.30;9.30;;;;;;;4.30;71.99;97200.85;106827;1284;22575;-78
2023/12/20 04:36:50;;;;;;;11.30;9.80;;;;;;;4.25;73.43;97203.75;106672;1284;22536;-78
2023/12/20 04:39:18;;;;;;;11.30;9.60;;;;;;;4.15;73.10;97208.66;106732;1271;24306;-78
2023/12/20 04:41:47;;;;;;;11.20;10.10;;;;;;;4.10;74.81;97213.37;106558;1284;23307;-78
2023/12/20 04:44:15;;;;;;;10.50;9.40;;;;;;;4.02;75.90;97206.74;106601;1268;23504;-78
2023/12/20 04:46:44;;;;;;;11.20;9.30;;;;;;;3.98;78.19;97209.64;106310;1284;22546;-78
2023/12/20 04:49:12;;;;;;;11.10;10.00;;;;;;;3.92;81.02;97202.61;106370;1268;22564;-79
2023/12/20 04:51:40;;;;;;;12.00;10.30;;;;;;;3.82;79.66;97199.88;106604;1284;22543;-78
2023/12/20 04:54:08;;;;;;;11.20;10.00;;;;;;;3.76;81.21;97199.48;106540;1277;22652;-78
2023/12/20 04:56:36;;;;;;;12.40;10.30;;;;;;;3.71;80.15;97194.75;106616;1284;22599;-78
2023/12/20 04:59:04;;;;;;;11.50;9.90;;;;;;;3.70;81.94;97193.48;106679;1268;22648;-77
2023/12/20 05:01:32;;;;;;;10.30;9.30;;;;;;;3.70;83.67;97190.87;106396;1283;23139;-77
2023/12/20 05:04:00;;;;;;;11.70;10.50;;;;;;;3.64;83.38;97185.39;106868;1275;25383;-78
2023/12/20 05:06:28;;;;;;;11.30;10.20;;;;;;;3.58;84.01;97182.00;106866;1283;25365;-78
2023/12/20 05:08:56;;;;;;;10.70;9.60;;;;;;;3.58;87.18;97175.55;106746;1268;22645;-77
2023/12/20 05:11:24;;;;;;;10.90;9.80;;;;;;;3.53;85.88;97178.08;106251;1284;22550;-78
2023/12/20 05:13:51;;;;;;;11.50;10.40;;;;;;;3.52;87.80;97177.05;106699;1276;22543;-78
2023/12/20 05:16:20;;;;;;;12.30;11.00;;;;;;;3.48;86.56;97175.58;106637;1284;23006;-79
2023/12/20 05:18:50;;;;;;;10.30;9.30;;;;;;;3.43;87.86;97171.00;106302;1283;22538;-78
2023/12/20 05:21:18;;;;;;;10.70;9.50;;;;;;;3.41;90.25;97177.68;106855;1271;24521;-78
2023/12/20 05:23:46;;;;;;;10.70;9.60;;;;;;;3.38;88.22;97177.14;106733;1283;22715;-78
2023/12/20 05:26:14;;;;;;;12.30;11.00;;;;;;;3.40;89.45;97174.58;106800;1273;22539;-78
2023/12/20 05:28:42;;;;;;;11.30;10.10;;;;;;;3.38;89.07;97173.68;106700;1281;22617;-78
2023/12/20 05:31:10;;;;;;;11.70;10.60;;;;;;;3.34;88.91;97170.08;106600;1271;22870;-79
2023/12/20 05:33:38;;;;;;;13.10;11.80;;;;;;;3.33;89.60;97171.08;106561;1282;22599;-78
2023/12/20 05:36:11;;;;;;;15.10;10.90;;;;;;;3.31;90.50;97170.52;106618;1273;22571;-79
2023/12/20 05:38:39;;;;;;;12.20;11.00;;;;;;;3.30;90.69;97176.30;106628;1283;25506;-79
2023/12/20 05:41:07;;;;;;;12.80;11.30;;;;;;;3.29;91.16;97172.33;106608;1281;22561;-78
2023/12/20 05:43:35;;;;;;;14.40;13.00;;;;;;;3.25;92.60;97171.31;106767;1281;23896;-77
2023/12/20 05:46:03;;;;;;;13.40;12.10;;;;;;;3.24;93.93;97167.38;106777;1283;24242;-77
2023/12/20 05:48:31;;;;;;;12.50;11.20;;;;;;;3.21;94.16;97166.20;106772;1284;22606;-78
2023/12/20 05:50:59;;;;;;;13.60;11.50;;;;;;;3.19;95.23;97162.38;106684;1284;24245;-78
2023/12/20 05:53:27;;;;;;;13.50;12.10;;;;;;;3.17;94.90;97162.43;106706;1279;25369;-78
2023/12/20 05:55:55;;;;;;;13.40;12.10;;;;;;;3.14;95.80;97163.93;106319;1268;22549;-77
2023/12/20 05:58:23;;;;;;;14.10;12.60;;;;;;;3.13;96.18;97163.14;106732;1283;25502;-78
2023/12/20 06:00:51;;;;;;;12.50;11.20;;;;;;;3.13;96.31;97159.73;106680;1283;25711;-78
2023/12/20 06:03:21;;;;;;;13.90;12.60;;;;;;;3.15;96.45;97159.98;106736;1283;23912;-79
2023/12/20 06:05:49;;;;;;;13.30;11.90;;;;;;;3.17;97.56;97163.98;106675;1284;22532;-78
2023/12/20 06:08:19;;;;;;;14.40;12.70;;;;;;;3.16;97.03;97162.76;106721;1275;22553;-79
2023/12/20 06:10:49;;;;;;;13.90;12.60;;;;;;;3.14;97.96;97164.77;106536;1284;24368;-80
2023/12/20 06:13:17;;;;;;;13.10;11.90;;;;;;;3.13;97.87;97164.84;106508;1283;23611;-79
2023/12/20 06:15:45;;;;;;;14.70;13.30;;;;;;;3.16;97.77;97169.14;106555;1284;23417;-79
2023/12/20 06:18:13;;;;;;;14.50;13.20;;;;;;;3.16;98.66;97173.45;106612;1283;22663;-80
2023/12/20 06:20:41;;;;;;;16.00;14.50;;;;;;;3.15;98.60;97177.08;106826;1270;23302;-80
2023/12/20 06:23:09;;;;;;;14.80;13.50;;;;;;;3.12;98.18;97175.54;106838;1273;22779;-79
2023/12/20 06:25:37;;;;;;;15.20;13.60;;;;;;;3.15;99.42;97173.09;106774;1283;26576;-79
2023/12/20 06:28:05;;;;;;;15.40;14.00;;;;;;;3.15;99.99;97183.73;107022;1281;22780;-79
2023/12/20 06:30:34;;;;;;;15.60;14.10;;;;;;;3.14;100.00;97181.34;107140;1283;25436;-78
2023/12/20 06:33:02;;;;;;;16.30;14.70;;;;;;;3.13;100.00;97171.27;106861;1275;22606;-78
2023/12/20 06:35:30;;;;;;;17.10;15.50;;;;;;;3.09;99.98;97169.69;106669;1284;22637;-79
2023/12/20 06:38:01;;;;;;;22.00;19.90;;;;;;;3.07;100.00;97177.13;106692;1281;22663;-78
2023/12/20 06:40:29;;;;;;;19.20;17.30;;;;;;;3.06;99.96;97177.61;106721;1272;24283;-77
2023/12/20 06:42:57;;;;;;;49.30;42.80;;;;;;;3.10;100.00;97178.63;106300;1275;23900;-78
2023/12/20 06:45:39;;;;;;;29.10;26.10;;;;;;;3.07;100.00;97169.69;106659;1270;24252;-77
2023/12/20 06:48:07;;;;;;;20.70;18.40;;;;;;;3.05;100.00;97179.11;106680;1280;22632;-77
2023/12/20 06:50:39;;;;;;;21.10;18.80;;;;;;;3.04;99.98;97176.94;106519;1284;24368;-77
2023/12/20 06:53:08;;;;;;;18.50;16.80;;;;;;;3.06;99.93;97179.96;106473;1284;22612;-79
2023/12/20 06:55:37;;;;;;;16.50;15.10;;;;;;;3.08;100.00;97182.73;106235;1278;26570;-78
2023/12/20 06:58:06;;;;;;;16.80;15.30;;;;;;;3.07;100.00;97181.40;106625;1283;25420;-78
2023/12/20 07:00:34;;;;;;;18.80;16.90;;;;;;;3.04;100.00;97184.23;106745;1281;22652;-77
2023/12/20 07:03:03;;;;;;;17.10;15.40;;;;;;;3.03;100.00;97188.27;106649;1273;22585;-78
2023/12/20 07:05:33;;;;;;;19.70;17.80;;;;;;;3.00;100.00;97187.90;106309;1278;25316;-79
2023/12/20 07:08:01;;;;;;;17.90;15.90;;;;;;;2.96;100.00;97187.70;106693;1274;23926;-79
2023/12/20 07:10:29;;;;;;;23.70;20.70;;;;;;;2.94;100.00;97179.38;106714;1271;22551;-78
2023/12/20 07:12:57;;;;;;;19.60;17.50;;;;;;;2.91;100.00;97177.79;106798;1272;22818;-79
2023/12/20 07:15:26;;;;;;;19.40;16.50;;;;;;;2.88;100.00;97178.01;106836;1273;24086;-80
2023/12/20 07:17:55;;;;;;;17.30;15.70;;;;;;;2.88;100.00;97182.35;106417;1284;22832;-78
2023/12/20 07:20:23;;;;;;;20.80;18.60;;;;;;;2.89;100.00;97184.39;106544;1283;26647;-79
2023/12/20 07:22:51;;;;;;;19.10;17.00;;;;;;;2.87;100.00;97191.26;106817;1280;23170;-79
2023/12/20 07:25:20;;;;;;;38.10;22.40;;;;;;;2.85;100.00;97192.52;106733;1279;24202;-78
2023/12/20 07:27:48;;;;;;;20.10;17.40;;;;;;;2.85;100.00;97194.95;106685;1274;22555;-78
2023/12/20 07:30:16;;;;;;;24.00;20.70;;;;;;;2.83;100.00;97195.82;106615;1283;22551;-79
2023/12/20 07:32:44;;;;;;;21.10;19.10;;;;;;;2.81;100.00;97197.41;106737;1283;23897;-79
2023/12/20 07:35:12;;;;;;;19.80;17.90;;;;;;;2.82;100.00;97193.21;106704;1269;22545;-79
2023/12/20 07:37:40;;;;;;;19.70;17.80;;;;;;;2.81;100.00;97194.02;106732;1283;22553;-79
2023/12/20 07:40:09;;;;;;;18.70;16.90;;;;;;;2.77;100.00;97199.96;106726;1274;25442;-79
2023/12/20 07:42:37;;;;;;;19.10;17.40;;;;;;;2.73;100.00;97204.17;106788;1283;22701;-78
2023/12/20 07:45:05;;;;;;;18.60;16.70;;;;;;;2.68;100.00;97209.48;106611;1284;23270;-78
2023/12/20 07:47:33;;;;;;;21.00;18.70;;;;;;;2.65;100.00;97209.43;106690;1268;24283;-79
2023/12/20 07:50:02;;;;;;;19.90;17.80;;;;;;;2.60;100.00;97211.29;106786;1281;24239;-79
2023/12/20 07:52:30;;;;;;;19.30;17.30;;;;;;;2.57;100.00;97210.17;106693;1269;25548;-80
2023/12/20 07:54:59;;;;;;;23.70;21.20;;;;;;;2.57;100.00;97199.95;106599;1278;23505;-79
2023/12/20 07:57:30;;;;;;;23.60;21.00;;;;;;;2.53;100.00;97203.20;106619;1273;24093;-79
2023/12/20 07:59:58;;;;;;;22.00;19.70;;;;;;;2.49;100.00;97201.80;106553;1284;24255;-78
2023/12/20 08:02:26;;;;;;;21.20;19.10;;;;;;;2.48;100.00;97206.16;106617;1269;23012;-78
2023/12/20 08:04:54;;;;;;;17.80;16.10;;;;;;;2.47;100.00;97205.73;106677;1271;23246;-78
2023/12/20 08:07:22;;;;;;;17.80;16.10;;;;;;;2.50;100.00;97203.56;106652;1273;22544;-79
2023/12/20 08:09:51;;;;;;;20.20;18.40;;;;;;;2.51;100.00;97207.77;106598;1283;22542;-79
2023/12/20 08:12:19;;;;;;;19.20;17.50;;;;;;;2.51;100.00;97205.31;106611;1274;22617;-79
2023/12/20 08:14:47;;;;;;;18.60;17.00;;;;;;;2.50;100.00;97207.66;106688;1279;22544;-79
2023/12/20 08:17:16;;;;;;;19.10;17.20;;;;;;;2.53;100.00;97213.09;106664;1273;23766;-79
2023/12/20 08:19:44;;;;;;;18.10;16.40;;;;;;;2.51;100.00;97204.58;106599;1281;22560;-79
2023/12/20 08:22:12;;;;;;;19.20;17.50;;;;;;;2.51;100.00;97209.84;106724;1273;22536;-79
2023/12/20 08:24:40;;;;;;;19.40;17.50;;;;;;;2.52;100.00;97208.72;106751;1283;24402;-81
2023/12/20 08:27:09;;;;;;;17.00;15.50;;;;;;;2.48;100.00;97209.66;106713;1279;22615;-79
2023/12/20 08:29:37;;;;;;;18.40;16.80;;;;;;;2.46;100.00;97207.17;106651;1278;23956;-79
2023/12/20 08:32:05;;;;;;;17.40;15.70;;;;;;;2.46;100.00;97206.76;106614;1269;22763;-78
2023/12/20 08:34:33;;;;;;;17.00;15.40;;;;;;;2.47;100.00;97205.25;106612;1278;22559;-79
2023/12/20 08:37:01;;;;;;;17.70;16.10;;;;;;;2.48;100.00;97202.87;106649;1272;22782;-79
2023/12/20 08:39:29;;;;;;;23.50;21.40;;;;;;;2.48;100.00;97201.31;106774;1281;22539;-78
2023/12/20 08:42:00;;;;;;;18.20;16.60;;;;;;;2.50;100.00;97203.24;106792;1275;22828;-78
2023/12/20 08:44:28;;;;;;;18.70;17.00;;;;;;;2.51;100.00;97204.26;106977;1283;22740;-78
2023/12/20 08:46:57;;;;;;;16.00;14.60;;;;;;;2.51;100.00;97211.07;107653;1271;22564;-78
2023/12/20 08:49:25;;;;;;;16.40;14.90;;;;;;;2.50;100.00;97214.77;106659;1281;22790;-79
2023/12/20 08:51:53;;;;;;;16.10;14.70;;;;;;;2.50;100.00;97218.77;106517;1284;22666;-78
2023/12/20 08:54:21;;;;;;;14.80;13.50;;;;;;;2.49;100.00;97218.77;106551;1284;22657;-78
2023/12/20 08:56:49;;;;;;;15.60;14.20;;;;;;;2.49;100.00;97218.55;106434;1284;24395;-79
2023/12/20 08:59:18;;;;;;;16.00;14.60;;;;;;;2.46;100.00;97218.70;106468;1284;22589;-79
2023/12/20 09:01:48;;;;;;;15.70;14.10;;;;;;;2.43;100.00;97218.07;106609;1273;22589;-78
2023/12/20 09:04:16;;;;;;;15.50;14.10;;;;;;;2.39;100.00;97212.48;106746;1274;23294;-79
2023/12/20 09:06:44;;;;;;;15.50;14.00;;;;;;;2.38;100.00;97216.02;106697;1283;22662;-80
2023/12/20 09:09:15;;;;;;;13.70;12.40;;;;;;;2.35;100.00;97209.91;106696;1267;23939;-78
2023/12/20 09:11:46;;;;;;;16.80;15.20;;;;;;;2.35;100.00;97212.88;106759;1284;22543;-79
2023/12/20 09:14:14;;;;;;;15.10;13.70;;;;;;;2.37;100.00;97214.07;106836;1283;25455;-79
2023/12/20 09:16:42;;;;;;;15.80;14.20;;;;;;;2.35;100.00;97213.73;106766;1283;22580;-79
2023/12/20 09:19:10;;;;;;;14.90;13.50;;;;;;;2.31;100.00;97212.40;106763;1271;22548;-79
2023/12/20 09:21:38;;;;;;;14.60;13.30;;;;;;;2.33;100.00;97204.15;106703;1283;23910;-79
2023/12/20 09:24:06;;;;;;;15.50;13.90;;;;;;;2.32;100.00;97209.73;106622;1273;25445;-79
2023/12/20 09:26:34;;;;;;;13.80;12.60;;;;;;;2.32;100.00;97199.05;106535;1272;22652;-79
2023/12/20 09:29:02;;;;;;;14.50;13.10;;;;;;;2.33;100.00;97206.98;106582;1284;24414;-79
2023/12/20 09:31:30;;;;;;;18.10;16.50;;;;;;;2.30;100.00;97202.51;106678;1270;25445;-80
2023/12/20 09:33:58;;;;;;;22.90;21.00;;;;;;;2.29;100.00;97197.98;106671;1284;24247;-79
2023/12/20 09:36:27;;;;;;;15.10;13.80;;;;;;;2.33;100.00;97200.81;106810;1284;22629;-79
2023/12/20 09:38:55;;;;;;;13.90;12.80;;;;;;;2.37;100.00;97203.32;107076;1283;24226;-78
2023/12/20 09:41:24;;;;;;;15.70;14.40;;;;;;;2.35;100.00;97202.47;107132;1283;24736;-79
2023/12/20 09:43:57;;;;;;;16.00;14.50;;;;;;;2.36;100.00;97203.38;106873;1283;22546;-79
2023/12/20 09:46:29;;;;;;;14.90;13.50;;;;;;;2.36;100.00;97202.73;106829;1284;24432;-80
2023/12/20 09:48:59;;;;;;;16.30;14.90;;;;;;;2.37;100.00;97194.61;106697;1284;22848;-80
2023/12/20 09:51:29;;;;;;;15.20;13.90;;;;;;;2.39;100.00;97196.41;106574;1277;131123;-80
2023/12/20 09:53:58;;;;;;;17.80;16.20;;;;;;;2.40;100.00;97190.71;106702;1281;22793;-80
2023/12/20 09:56:26;;;;;;;18.40;16.80;;;;;;;2.39;100.00;97188.06;106818;1284;24273;-81
2023/12/20 09:58:54;;;;;;;16.40;14.80;;;;;;;2.38;100.00;97188.96;106722;1283;22599;-81
2023/12/20 10:01:23;;;;;;;15.50;14.10;;;;;;;2.40;100.00;97183.83;106639;1275;22603;-80
2023/12/20 10:03:54;;;;;;;14.90;13.60;;;;;;;2.36;100.00;97180.34;106666;1268;22607;-81
2023/12/20 10:06:23;;;;;;;15.90;14.50;;;;;;;2.37;100.00;97176.89;106872;1273;25497;-80
2023/12/20 10:08:51;;;;;;;15.30;13.70;;;;;;;2.36;100.00;97172.43;106679;1269;25436;-80
2023/12/20 10:11:19;;;;;;;16.90;15.40;;;;;;;2.38;100.00;97173.17;106701;1261;22615;-81
2023/12/20 10:13:48;;;;;;;16.30;14.60;;;;;;;2.38;100.00;97173.34;106571;1275;22648;-80
2023/12/20 10:16:16;;;;;;;17.30;15.70;;;;;;;2.37;100.00;97176.30;106716;1273;25368;-81
2023/12/20 10:18:45;;;;;;;23.90;21.50;;;;;;;2.40;100.00;97172.01;106741;1270;24449;-80
2023/12/20 10:21:13;;;;;;;18.80;16.90;;;;;;;2.43;100.00;97172.59;106529;1273;22561;-80
2023/12/20 10:23:41;;;;;;;21.40;19.30;;;;;;;2.45;100.00;97174.95;106757;1277;25447;-80
2023/12/20 10:26:09;;;;;;;17.00;15.30;;;;;;;2.48;100.00;97170.27;106572;1284;24125;-80
2023/12/20 10:28:38;;;;;;;17.40;15.80;;;;;;;2.54;100.00;97168.90;106726;1283;22565;-80
2023/12/20 10:31:06;;;;;;;17.40;15.80;;;;;;;2.54;100.00;97167.24;106993;1270;22577;-81
2023/12/20 10:33:34;;;;;;;17.00;15.50;;;;;;;2.55;100.00;97166.91;107057;1283;22655;-80
2023/12/20 10:36:03;;;;;;;32.10;21.40;;;;;;;2.57;100.00;97168.04;107078;1270;24239;-80
2023/12/20 10:38:31;;;;;;;39.10;22.70;;;;;;;2.61;100.00;97163.89;107038;1272;22712;-81
2023/12/20 10:41:04;;;;;;;47.20;26.50;;;;;;;2.64;100.00;97159.97;106975;1283;22554;-81
2023/12/20 10:43:33;;;;;;;66.70;28.00;;;;;;;2.67;100.00;97157.73;106984;1274;24249;-81
2023/12/20 10:46:03;;;;;;;29.00;19.60;;;;;;;2.71;100.00;97158.36;106988;1283;22610;-80
2023/12/20 10:48:32;;;;;;;19.00;17.10;;;;;;;2.74;100.00;97160.71;107080;1271;23175;-80
2023/12/20 10:51:01;;;;;;;15.80;14.40;;;;;;;2.73;100.00;97157.20;107166;1283;22888;-80
2023/12/20 10:53:29;;;;;;;18.00;16.40;;;;;;;2.75;100.00;97159.17;107205;1283;24226;-81
2023/12/20 10:56:00;;;;;;;22.80;20.60;;;;;;;2.79;100.00;97160.55;107195;1277;22545;-80
2023/12/20 10:58:32;;;;;;;26.00;23.20;;;;;;;2.83;100.00;97162.04;106472;1284;24264;-80
2023/12/20 11:01:04;;;;;;;21.50;19.00;;;;;;;2.84;100.00;97168.21;107088;1283;25508;-80
2023/12/20 11:03:39;;;;;;;23.20;21.00;;;;;;;2.85;100.00;97163.90;107001;1270;22592;-81
2023/12/20 11:06:18;;;;;;;18.20;16.40;;;;;;;2.87;100.00;97164.95;106986;1272;22610;-80
2023/12/20 11:09:09;;;;;;;16.70;15.10;;;;;;;2.90;100.00;97165.81;107058;1270;22557;-80
2023/12/20 11:11:43;;;;;;;16.40;14.80;;;;;;;2.92;100.00;97165.66;107120;1283;24258;-81
2023/12/20 11:14:20;;;;;;;15.60;14.00;;;;;;;2.91;100.00;97164.22;107055;1283;22549;-79
2023/12/20 11:16:48;;;;;;;13.60;12.20;;;;;;;2.95;100.00;97168.90;107047;1270;22650;-79
2023/12/20 11:19:22;;;;;;;17.00;15.50;;;;;;;2.94;100.00;97162.98;106887;1277;23261;-80
2023/12/20 11:21:50;;;;;;;15.30;13.90;;;;;;;2.92;100.00;97162.52;106855;1269;22605;-80
2023/12/20 11:24:24;;;;;;;18.00;16.40;;;;;;;2.92;100.00;97159.42;107139;1283;24242;-81
2023/12/20 11:26:56;;;;;;;16.10;14.50;;;;;;;2.92;100.00;97155.39;107058;1280;22640;-80